STU42E EGCC-LGSK
Flight info
| Callsign | STU42E |
|---|---|
| Flight time | N/A |
| Altitude | 35000 |
| Route | DESIG L603 DOLAS DCT NAVPI DCT ALFEN DCT DOJOH DCT DODEN DCT NEGIX DCT DINKU/N0435F370 DCT BESNI DCT LATLO DCT OBEDI DCT NAKUM DCT OLEZE DCT TEBLI DCT BOSNA DCT PODOB DCT MEDUX UM867 KOGAT DCT ERANA UL737 TSL |
| Aircraft | A320/M-SDE3FGHIRWY/LB1 |
Departure
| Time | N/A |
|---|---|
| Airport | Manchester Airport (EGCC) |
Arrival
| Time | 2026-05-04 12:36 |
|---|---|
| Airport | Skiathos Island National Airport (LGSK) |
| Time | Latitude | Longitude | Altitude | Speed | Heading |
|---|---|---|---|---|---|
| 2026-05-04 09:28 | 53.42346 | -1.64926 | 12639 ft | 353 kts | 91° |
| 2026-05-04 09:28 | 53.42289 | -1.60789 | 13283 ft | 357 kts | 91° |
| 2026-05-04 09:28 | 53.42233 | -1.56546 | 13919 ft | 361 kts | 91° |
| 2026-05-04 09:28 | 53.42181 | -1.52372 | 14483 ft | 364 kts | 91° |
| 2026-05-04 09:29 | 53.42124 | -1.48105 | 15049 ft | 367 kts | 91° |
| 2026-05-04 09:29 | 53.42061 | -1.43803 | 15611 ft | 370 kts | 91° |
| 2026-05-04 09:29 | 53.41992 | -1.39477 | 16197 ft | 372 kts | 92° |
| 2026-05-04 09:29 | 53.41922 | -1.35148 | 16753 ft | 375 kts | 92° |
| 2026-05-04 09:30 | 53.41848 | -1.30758 | 17301 ft | 378 kts | 93° |
| 2026-05-04 09:30 | 53.41491 | -1.26384 | 17873 ft | 380 kts | 104° |
| 2026-05-04 09:30 | 53.40755 | -1.22117 | 18413 ft | 382 kts | 108° |
| 2026-05-04 09:30 | 53.39975 | -1.17841 | 18895 ft | 385 kts | 108° |
| 2026-05-04 09:31 | 53.39187 | -1.13537 | 19400 ft | 387 kts | 107° |
| 2026-05-04 09:31 | 53.38397 | -1.09221 | 19928 ft | 388 kts | 107° |
| 2026-05-04 09:31 | 53.37603 | -1.04888 | 20435 ft | 390 kts | 107° |
| 2026-05-04 09:31 | 53.36815 | -1.00593 | 20904 ft | 393 kts | 107° |
| 2026-05-04 09:32 | 53.36004 | -0.96202 | 21346 ft | 396 kts | 108° |
| 2026-05-04 09:32 | 53.35185 | -0.91782 | 21832 ft | 399 kts | 108° |
| 2026-05-04 09:34 | 53.29316 | -0.60256 | 24838 ft | 411 kts | 107° |
| 2026-05-04 09:34 | 53.28457 | -0.55704 | 25206 ft | 412 kts | 107° |
| 2026-05-04 09:34 | 53.27591 | -0.51140 | 25575 ft | 412 kts | 106° |
| 2026-05-04 09:34 | 53.26724 | -0.46568 | 25903 ft | 414 kts | 107° |
| 2026-05-04 09:35 | 53.25850 | -0.41972 | 26228 ft | 416 kts | 107° |
| 2026-05-04 09:35 | 53.24972 | -0.37359 | 26571 ft | 418 kts | 107° |
| 2026-05-04 09:35 | 53.24086 | -0.32719 | 26857 ft | 421 kts | 107° |
| 2026-05-04 09:35 | 53.23207 | -0.28120 | 27144 ft | 423 kts | 107° |
| 2026-05-04 09:37 | 53.16822 | 0.05014 | 29067 ft | 437 kts | 108° |
| 2026-05-04 09:37 | 53.15885 | 0.09847 | 29291 ft | 440 kts | 108° |
| 2026-05-04 09:38 | 53.14940 | 0.14712 | 29545 ft | 442 kts | 108° |
| 2026-05-04 09:38 | 53.13990 | 0.19583 | 29794 ft | 443 kts | 108° |
| 2026-05-04 09:38 | 53.13031 | 0.24466 | 30030 ft | 445 kts | 108° |
| 2026-05-04 09:38 | 53.12061 | 0.29367 | 30245 ft | 446 kts | 108° |
| 2026-05-04 09:39 | 53.11085 | 0.34277 | 30440 ft | 447 kts | 108° |
| 2026-05-04 09:39 | 53.10106 | 0.39199 | 30657 ft | 448 kts | 108° |
| 2026-05-04 09:39 | 53.09130 | 0.44120 | 30916 ft | 447 kts | 108° |
| 2026-05-04 09:39 | 53.08167 | 0.48976 | 31180 ft | 446 kts | 108° |
| 2026-05-04 09:40 | 53.07192 | 0.53880 | 31382 ft | 448 kts | 109° |
| 2026-05-04 09:40 | 53.06208 | 0.58816 | 31528 ft | 450 kts | 109° |
| 2026-05-04 09:40 | 53.05216 | 0.63777 | 31708 ft | 452 kts | 109° |
| 2026-05-04 09:40 | 53.04221 | 0.68732 | 31918 ft | 452 kts | 109° |
| 2026-05-04 09:41 | 53.03225 | 0.73686 | 32174 ft | 452 kts | 109° |
| 2026-05-04 09:42 | 52.96128 | 1.08147 | 33773 ft | 452 kts | 112° |
| 2026-05-04 09:43 | 52.95019 | 1.13017 | 34016 ft | 452 kts | 112° |
| 2026-05-04 09:43 | 52.93891 | 1.17885 | 34226 ft | 451 kts | 112° |
| 2026-05-04 09:43 | 52.92763 | 1.22741 | 34437 ft | 451 kts | 112° |
| 2026-05-04 09:43 | 52.91642 | 1.27589 | 34622 ft | 451 kts | 112° |
| 2026-05-04 09:44 | 52.90528 | 1.32448 | 34810 ft | 451 kts | 112° |
| 2026-05-04 09:44 | 52.89423 | 1.37297 | 34986 ft | 451 kts | 112° |
| 2026-05-04 09:46 | 52.80545 | 1.75814 | 35038 ft | 450 kts | 113° |
| 2026-05-04 09:46 | 52.78305 | 1.85460 | 35038 ft | 450 kts | 113° |
| 2026-05-04 09:47 | 52.76051 | 1.95086 | 35041 ft | 450 kts | 113° |
| 2026-05-04 09:49 | 52.67309 | 2.31952 | 35023 ft | 451 kts | 114° |
| 2026-05-04 09:51 | 52.59600 | 2.63998 | 35025 ft | 451 kts | 114° |
| 2026-05-04 09:51 | 52.57253 | 2.73574 | 35026 ft | 450 kts | 118° |
| 2026-05-04 09:52 | 52.54757 | 2.81174 | 35023 ft | 448 kts | 122° |
| 2026-05-04 09:52 | 52.51724 | 2.90113 | 35030 ft | 448 kts | 122° |
| 2026-05-04 09:53 | 52.48674 | 2.99038 | 35000 ft | 448 kts | 123° |
| 2026-05-04 09:53 | 52.45624 | 3.07962 | 34998 ft | 449 kts | 123° |
| 2026-05-04 09:54 | 52.42565 | 3.16908 | 34995 ft | 450 kts | 123° |
| 2026-05-04 09:54 | 52.39497 | 3.25856 | 34989 ft | 451 kts | 123° |
| 2026-05-04 09:55 | 52.36416 | 3.34804 | 34992 ft | 451 kts | 123° |
| 2026-05-04 09:55 | 52.33326 | 3.43743 | 34997 ft | 452 kts | 123° |
| 2026-05-04 09:56 | 52.30238 | 3.52623 | 34979 ft | 452 kts | 124° |
| 2026-05-04 09:56 | 52.27126 | 3.61565 | 34994 ft | 453 kts | 124° |
| 2026-05-04 09:57 | 52.24005 | 3.70512 | 34999 ft | 454 kts | 124° |
| 2026-05-04 09:57 | 52.20866 | 3.79443 | 35005 ft | 453 kts | 125° |
| 2026-05-04 09:58 | 52.17732 | 3.88337 | 35014 ft | 452 kts | 125° |
| 2026-05-04 09:58 | 52.14596 | 3.97195 | 34998 ft | 451 kts | 126° |
| 2026-05-04 10:00 | 52.02056 | 4.32357 | 34998 ft | 450 kts | 126° |
| 2026-05-04 10:04 | 51.79584 | 4.94180 | 34999 ft | 471 kts | 127° |
| 2026-05-04 10:04 | 51.76804 | 5.01740 | 35000 ft | 471 kts | 126° |
| 2026-05-04 10:05 | 51.72915 | 5.12301 | 35000 ft | 471 kts | 127° |
| 2026-05-04 10:05 | 51.69556 | 5.21369 | 34997 ft | 471 kts | 127° |
| 2026-05-04 10:06 | 51.66184 | 5.30401 | 34990 ft | 470 kts | 127° |
| 2026-05-04 10:06 | 51.63380 | 5.37893 | 34970 ft | 470 kts | 127° |
| 2026-05-04 10:08 | 51.51516 | 5.69404 | 34989 ft | 471 kts | 127° |
| 2026-05-04 10:08 | 51.48115 | 5.78373 | 34975 ft | 471 kts | 127° |
| 2026-05-04 10:09 | 51.44696 | 5.87348 | 34977 ft | 471 kts | 127° |
| 2026-05-04 10:09 | 51.41284 | 5.96248 | 34978 ft | 471 kts | 127° |
| 2026-05-04 10:10 | 51.37849 | 6.05190 | 34987 ft | 471 kts | 127° |
| 2026-05-04 10:10 | 51.34410 | 6.14124 | 34992 ft | 471 kts | 127° |
| 2026-05-04 10:11 | 51.30973 | 6.23035 | 34970 ft | 471 kts | 127° |
| 2026-05-04 10:11 | 51.27522 | 6.31933 | 34981 ft | 471 kts | 127° |
| 2026-05-04 10:12 | 51.24089 | 6.40763 | 34988 ft | 471 kts | 127° |
| 2026-05-04 10:12 | 51.20627 | 6.49630 | 34992 ft | 471 kts | 127° |
| 2026-05-04 10:13 | 51.17159 | 6.58504 | 34992 ft | 471 kts | 127° |
| 2026-05-04 10:13 | 51.13681 | 6.67351 | 34956 ft | 471 kts | 127° |
| 2026-05-04 10:14 | 51.10198 | 6.76178 | 34974 ft | 471 kts | 127° |
| 2026-05-04 10:16 | 50.96238 | 7.11261 | 34982 ft | 469 kts | 128° |
| 2026-05-04 10:16 | 50.92723 | 7.20000 | 34984 ft | 470 kts | 128° |
| 2026-05-04 10:17 | 50.89229 | 7.28677 | 34996 ft | 470 kts | 128° |
| 2026-05-04 10:19 | 50.75089 | 7.63536 | 34990 ft | 471 kts | 128° |
| 2026-05-04 10:19 | 50.71529 | 7.72232 | 35006 ft | 472 kts | 128° |
| 2026-05-04 10:20 | 50.67964 | 7.80913 | 35013 ft | 471 kts | 128° |
| 2026-05-04 10:20 | 50.64395 | 7.89580 | 35019 ft | 471 kts | 128° |
| 2026-05-04 10:21 | 50.60816 | 7.98244 | 34980 ft | 472 kts | 128° |
| 2026-05-04 10:21 | 50.57231 | 8.06892 | 34990 ft | 472 kts | 128° |
| 2026-05-04 10:22 | 50.51861 | 8.19781 | 35006 ft | 472 kts | 128° |
| 2026-05-04 10:23 | 50.48262 | 8.28401 | 35011 ft | 472 kts | 128° |
| 2026-05-04 10:25 | 50.32882 | 8.61473 | 35012 ft | 465 kts | 138° |
| 2026-05-04 10:25 | 50.28467 | 8.68854 | 35029 ft | 464 kts | 138° |
| 2026-05-04 10:26 | 50.24091 | 8.76176 | 35034 ft | 464 kts | 138° |
| 2026-05-04 10:26 | 50.19680 | 8.83527 | 35038 ft | 464 kts | 138° |
| 2026-05-04 10:27 | 50.15258 | 8.90856 | 35041 ft | 463 kts | 138° |
| 2026-05-04 10:27 | 50.10832 | 8.98168 | 35039 ft | 463 kts | 138° |
| 2026-05-04 10:28 | 50.06403 | 9.05486 | 35028 ft | 463 kts | 138° |
| 2026-05-04 10:28 | 50.01984 | 9.12760 | 35032 ft | 462 kts | 139° |
| 2026-05-04 10:29 | 49.97590 | 9.19966 | 35030 ft | 462 kts | 139° |
| 2026-05-04 10:29 | 49.93169 | 9.27185 | 35032 ft | 461 kts | 139° |
| 2026-05-04 10:30 | 49.88739 | 9.34393 | 35031 ft | 461 kts | 139° |
| 2026-05-04 10:30 | 49.84313 | 9.41593 | 35031 ft | 461 kts | 139° |
| 2026-05-04 10:31 | 49.79890 | 9.48779 | 35014 ft | 461 kts | 139° |
| 2026-05-04 10:32 | 49.64375 | 9.73752 | 35025 ft | 461 kts | 139° |
| 2026-05-04 10:33 | 49.59923 | 9.80896 | 35027 ft | 462 kts | 139° |
| 2026-05-04 10:33 | 49.55466 | 9.88011 | 35027 ft | 461 kts | 139° |
| 2026-05-04 10:34 | 49.50997 | 9.95113 | 35001 ft | 462 kts | 139° |
| 2026-05-04 10:34 | 49.46554 | 10.02162 | 35006 ft | 462 kts | 139° |
| 2026-05-04 10:35 | 49.42044 | 10.09188 | 35018 ft | 462 kts | 139° |
| 2026-05-04 10:35 | 49.37582 | 10.16322 | 35025 ft | 463 kts | 138° |
| 2026-05-04 10:36 | 49.33106 | 10.23437 | 35036 ft | 463 kts | 139° |
| 2026-05-04 10:36 | 49.28613 | 10.30495 | 35016 ft | 463 kts | 139° |
| 2026-05-04 10:37 | 49.24124 | 10.37490 | 35033 ft | 463 kts | 139° |
| 2026-05-04 10:37 | 49.19560 | 10.44457 | 35041 ft | 463 kts | 140° |
| 2026-05-04 10:39 | 49.03339 | 10.68351 | 35052 ft | 464 kts | 140° |
| 2026-05-04 10:40 | 48.98697 | 10.75198 | 35047 ft | 464 kts | 140° |
| 2026-05-04 10:40 | 48.94044 | 10.82028 | 35045 ft | 464 kts | 140° |
| 2026-05-04 10:41 | 48.89389 | 10.88835 | 35044 ft | 464 kts | 140° |
| 2026-05-04 10:41 | 48.84734 | 10.95633 | 35033 ft | 464 kts | 140° |
| 2026-05-04 10:42 | 48.80068 | 11.02439 | 35015 ft | 465 kts | 140° |
| 2026-05-04 10:42 | 48.75394 | 11.09223 | 35008 ft | 465 kts | 140° |
| 2026-05-04 10:43 | 48.70743 | 11.15955 | 35015 ft | 465 kts | 140° |
| 2026-05-04 10:45 | 48.52801 | 11.44391 | 35015 ft | 470 kts | 135° |
| 2026-05-04 10:45 | 48.48427 | 11.51715 | 35019 ft | 469 kts | 136° |
| 2026-05-04 10:46 | 48.44017 | 11.58962 | 35047 ft | 468 kts | 136° |
| 2026-05-04 10:46 | 48.39608 | 11.66175 | 35052 ft | 467 kts | 136° |
| 2026-05-04 10:47 | 48.35208 | 11.73370 | 35023 ft | 467 kts | 136° |
| 2026-05-04 10:47 | 48.30839 | 11.80526 | 35022 ft | 467 kts | 136° |
| 2026-05-04 10:49 | 48.13205 | 12.09199 | 35003 ft | 468 kts | 136° |
| 2026-05-04 10:50 | 48.08771 | 12.16355 | 35000 ft | 469 kts | 136° |
| 2026-05-04 10:52 | 47.90988 | 12.44875 | 35021 ft | 469 kts | 136° |
| 2026-05-04 10:52 | 47.86528 | 12.51959 | 35020 ft | 468 kts | 136° |
| 2026-05-04 10:54 | 47.68692 | 12.80195 | 35018 ft | 469 kts | 136° |
| 2026-05-04 10:56 | 47.54170 | 13.01694 | 35031 ft | 469 kts | 137° |
| 2026-05-04 10:57 | 47.49538 | 13.08489 | 35024 ft | 469 kts | 137° |
| 2026-05-04 10:57 | 47.44908 | 13.15284 | 35038 ft | 468 kts | 137° |
| 2026-05-04 10:58 | 47.40312 | 13.22006 | 35042 ft | 468 kts | 137° |
| 2026-05-04 10:58 | 47.35682 | 13.28755 | 35058 ft | 467 kts | 137° |
| 2026-05-04 10:59 | 47.31103 | 13.35562 | 35056 ft | 467 kts | 134° |
| 2026-05-04 10:59 | 47.26848 | 13.42815 | 35050 ft | 469 kts | 131° |
| 2026-05-04 11:00 | 47.22716 | 13.50243 | 35055 ft | 469 kts | 131° |
| 2026-05-04 11:02 | 47.05745 | 13.79268 | 35059 ft | 469 kts | 132° |
| 2026-05-04 11:05 | 46.74283 | 14.32183 | 35069 ft | 471 kts | 133° |
| 2026-05-04 11:06 | 46.69959 | 14.39285 | 35069 ft | 471 kts | 133° |
| 2026-05-04 11:06 | 46.65501 | 14.46294 | 35063 ft | 472 kts | 134° |
| 2026-05-04 11:10 | 46.34060 | 14.95308 | 35052 ft | 478 kts | 134° |
| 2026-05-04 11:12 | 46.17128 | 15.21448 | 35089 ft | 477 kts | 134° |
| 2026-05-04 11:12 | 46.12573 | 15.28410 | 35090 ft | 477 kts | 134° |
| 2026-05-04 11:13 | 46.08020 | 15.35363 | 35079 ft | 477 kts | 133° |
| 2026-05-04 11:13 | 46.03487 | 15.42344 | 35088 ft | 477 kts | 133° |
| 2026-05-04 11:14 | 45.98957 | 15.49328 | 35090 ft | 477 kts | 133° |
| 2026-05-04 11:16 | 45.80782 | 15.77063 | 35090 ft | 478 kts | 134° |
| 2026-05-04 11:16 | 45.76221 | 15.83988 | 35095 ft | 478 kts | 134° |
| 2026-05-04 11:17 | 45.71642 | 15.90906 | 35105 ft | 478 kts | 133° |
| 2026-05-04 11:19 | 45.53300 | 16.18468 | 35123 ft | 480 kts | 133° |
| 2026-05-04 11:19 | 45.48687 | 16.25356 | 35122 ft | 480 kts | 133° |
| 2026-05-04 11:20 | 45.44150 | 16.32128 | 35121 ft | 480 kts | 133° |
| 2026-05-04 11:20 | 45.39867 | 16.38501 | 35124 ft | 480 kts | 133° |
| 2026-05-04 11:22 | 45.21360 | 16.65819 | 35120 ft | 479 kts | 133° |
| 2026-05-04 11:23 | 45.16650 | 16.72497 | 35115 ft | 479 kts | 136° |
| 2026-05-04 11:25 | 44.99778 | 16.94542 | 35115 ft | 479 kts | 136° |
| 2026-05-04 11:25 | 44.94923 | 17.00977 | 35110 ft | 479 kts | 136° |
| 2026-05-04 11:27 | 44.72918 | 17.29741 | 35114 ft | 480 kts | 136° |
| 2026-05-04 11:28 | 44.68041 | 17.36076 | 35123 ft | 481 kts | 136° |
| 2026-05-04 11:28 | 44.63211 | 17.42340 | 35116 ft | 481 kts | 136° |
| 2026-05-04 11:29 | 44.58284 | 17.48714 | 35119 ft | 481 kts | 137° |
| 2026-05-04 11:29 | 44.53355 | 17.55064 | 35115 ft | 481 kts | 137° |
| 2026-05-04 11:31 | 44.36399 | 17.77071 | 35125 ft | 459 kts | 129° |
| 2026-05-04 11:33 | 44.22428 | 18.00607 | 35129 ft | 458 kts | 128° |
| 2026-05-04 11:33 | 44.18344 | 18.07431 | 35131 ft | 458 kts | 128° |
| 2026-05-04 11:34 | 44.14264 | 18.14264 | 35140 ft | 459 kts | 128° |
| 2026-05-04 11:34 | 44.10183 | 18.21089 | 35123 ft | 459 kts | 128° |
| 2026-05-04 11:35 | 44.06082 | 18.27903 | 35128 ft | 459 kts | 128° |
| 2026-05-04 11:35 | 44.01970 | 18.34710 | 35129 ft | 460 kts | 128° |
| 2026-05-04 11:36 | 43.97882 | 18.41465 | 35128 ft | 460 kts | 128° |
| 2026-05-04 11:36 | 43.93763 | 18.48256 | 35131 ft | 460 kts | 128° |
| 2026-05-04 11:37 | 43.89641 | 18.55052 | 35134 ft | 460 kts | 128° |
| 2026-05-04 11:37 | 43.85518 | 18.61841 | 35138 ft | 460 kts | 128° |
| 2026-05-04 11:38 | 43.81383 | 18.68614 | 35142 ft | 461 kts | 128° |
| 2026-05-04 11:38 | 43.77236 | 18.75388 | 35140 ft | 461 kts | 128° |
| 2026-05-04 11:39 | 43.73092 | 18.82154 | 35139 ft | 461 kts | 128° |
| 2026-05-04 11:41 | 43.58560 | 19.05742 | 35138 ft | 462 kts | 128° |
| 2026-05-04 11:41 | 43.54372 | 19.12488 | 35128 ft | 463 kts | 129° |
| 2026-05-04 11:42 | 43.49610 | 19.18496 | 35125 ft | 466 kts | 139° |
| 2026-05-04 11:42 | 43.44606 | 19.24172 | 35142 ft | 466 kts | 139° |
| 2026-05-04 11:43 | 43.39602 | 19.29840 | 35139 ft | 466 kts | 139° |
| 2026-05-04 11:43 | 43.34595 | 19.35497 | 35139 ft | 466 kts | 139° |
| 2026-05-04 11:44 | 43.29574 | 19.41149 | 35131 ft | 467 kts | 139° |
| 2026-05-04 11:44 | 43.24578 | 19.46781 | 35154 ft | 468 kts | 138° |
| 2026-05-04 11:45 | 43.19549 | 19.52436 | 35136 ft | 468 kts | 139° |
| 2026-05-04 11:45 | 43.14507 | 19.58080 | 35134 ft | 468 kts | 139° |
| 2026-05-04 11:46 | 43.09461 | 19.63718 | 35142 ft | 468 kts | 139° |
| 2026-05-04 11:46 | 43.04409 | 19.69351 | 35135 ft | 468 kts | 139° |
| 2026-05-04 11:47 | 42.99384 | 19.74946 | 35146 ft | 469 kts | 139° |
| 2026-05-04 11:47 | 42.94323 | 19.80575 | 35167 ft | 469 kts | 138° |
| 2026-05-04 11:48 | 42.89257 | 19.86188 | 35150 ft | 469 kts | 138° |
| 2026-05-04 11:48 | 42.84954 | 19.90941 | 35149 ft | 469 kts | 139° |
| 2026-05-04 11:49 | 42.79876 | 19.96538 | 35145 ft | 470 kts | 139° |
| 2026-05-04 11:49 | 42.74872 | 20.02240 | 35139 ft | 468 kts | 131° |
| 2026-05-04 11:50 | 42.70682 | 20.08939 | 35144 ft | 465 kts | 126° |
| 2026-05-04 11:50 | 42.66830 | 20.15298 | 35165 ft | 466 kts | 126° |
| 2026-05-04 11:51 | 42.62704 | 20.22082 | 35147 ft | 466 kts | 126° |
| 2026-05-04 11:51 | 42.58606 | 20.28826 | 35147 ft | 466 kts | 126° |
| 2026-05-04 11:52 | 42.54467 | 20.35615 | 35143 ft | 467 kts | 126° |
| 2026-05-04 11:52 | 42.50314 | 20.42404 | 35141 ft | 468 kts | 126° |
| 2026-05-04 11:53 | 42.46156 | 20.49186 | 35171 ft | 468 kts | 126° |
| 2026-05-04 11:53 | 42.41990 | 20.55972 | 35165 ft | 468 kts | 126° |
| 2026-05-04 11:55 | 42.26061 | 20.81781 | 35178 ft | 470 kts | 126° |
| 2026-05-04 11:56 | 42.21858 | 20.88525 | 35176 ft | 469 kts | 126° |
| 2026-05-04 11:56 | 42.17654 | 20.95258 | 35176 ft | 469 kts | 126° |
| 2026-05-04 11:57 | 42.13464 | 21.01986 | 35164 ft | 468 kts | 126° |
| 2026-05-04 11:57 | 42.09045 | 21.08348 | 35157 ft | 471 kts | 133° |
| 2026-05-04 11:58 | 42.04274 | 21.14411 | 35182 ft | 471 kts | 133° |
| 2026-05-04 11:58 | 42.00321 | 21.19445 | 35169 ft | 471 kts | 133° |
| 2026-05-04 11:59 | 41.95560 | 21.25492 | 35158 ft | 471 kts | 133° |
| 2026-05-04 11:59 | 41.90781 | 21.31518 | 35151 ft | 471 kts | 133° |
| 2026-05-04 12:00 | 41.86004 | 21.37524 | 35140 ft | 470 kts | 133° |
| 2026-05-04 12:00 | 41.81237 | 21.43528 | 35129 ft | 470 kts | 133° |
| 2026-05-04 12:01 | 41.76465 | 21.49526 | 35127 ft | 470 kts | 133° |
| 2026-05-04 12:02 | 41.59755 | 21.70413 | 35118 ft | 471 kts | 134° |
| 2026-05-04 12:03 | 41.54961 | 21.76372 | 35122 ft | 471 kts | 134° |
| 2026-05-04 12:03 | 41.50158 | 21.82320 | 35150 ft | 471 kts | 134° |
| 2026-05-04 12:04 | 41.45349 | 21.88273 | 35132 ft | 472 kts | 134° |
| 2026-05-04 12:04 | 41.40538 | 21.94220 | 35126 ft | 472 kts | 134° |
| 2026-05-04 12:05 | 41.35719 | 22.00170 | 35120 ft | 472 kts | 134° |
| 2026-05-04 12:05 | 41.30896 | 22.06102 | 35124 ft | 472 kts | 134° |
| 2026-05-04 12:06 | 41.26093 | 22.12000 | 35129 ft | 472 kts | 134° |
| 2026-05-04 12:06 | 41.21296 | 22.17870 | 35145 ft | 472 kts | 134° |
| 2026-05-04 12:07 | 41.16468 | 22.23772 | 35128 ft | 472 kts | 135° |
| 2026-05-04 12:07 | 41.11474 | 22.29442 | 35118 ft | 473 kts | 138° |
| 2026-05-04 12:08 | 41.06309 | 22.34863 | 35116 ft | 473 kts | 139° |
| 2026-05-04 12:08 | 41.01138 | 22.40264 | 35114 ft | 473 kts | 138° |
| 2026-05-04 12:09 | 40.96018 | 22.45731 | 35130 ft | 473 kts | 138° |
| 2026-05-04 12:09 | 40.90920 | 22.51214 | 35139 ft | 472 kts | 138° |
| 2026-05-04 12:10 | 40.85851 | 22.56637 | 35136 ft | 471 kts | 138° |
| 2026-05-04 12:10 | 40.80752 | 22.62064 | 35131 ft | 471 kts | 139° |
| 2026-05-04 12:11 | 40.75650 | 22.67478 | 35128 ft | 470 kts | 139° |
| 2026-05-04 12:11 | 40.73099 | 22.70185 | 34965 ft | 470 kts | 139° |
| 2026-05-04 12:11 | 40.70556 | 22.72876 | 34730 ft | 468 kts | 139° |
| 2026-05-04 12:12 | 40.68021 | 22.75560 | 34495 ft | 467 kts | 139° |
| 2026-05-04 12:12 | 40.65485 | 22.78241 | 34270 ft | 466 kts | 139° |
| 2026-05-04 12:12 | 40.62966 | 22.80900 | 33982 ft | 461 kts | 139° |
| 2026-05-04 12:12 | 40.60469 | 22.83535 | 33394 ft | 458 kts | 139° |
| 2026-05-04 12:13 | 40.57875 | 22.85987 | 32521 ft | 464 kts | 150° |
| 2026-05-04 12:14 | 40.37533 | 22.96846 | 28946 ft | 433 kts | 155° |
| 2026-05-04 12:15 | 40.34777 | 22.98397 | 28489 ft | 427 kts | 155° |
| 2026-05-04 12:15 | 40.32065 | 22.99928 | 28057 ft | 421 kts | 155° |
| 2026-05-04 12:15 | 40.29392 | 23.01429 | 27622 ft | 415 kts | 155° |
| 2026-05-04 12:15 | 40.26749 | 23.02900 | 27187 ft | 410 kts | 155° |
| 2026-05-04 12:16 | 40.24135 | 23.04348 | 26755 ft | 405 kts | 155° |
| 2026-05-04 12:16 | 40.21547 | 23.05779 | 26320 ft | 402 kts | 155° |
| 2026-05-04 12:16 | 40.19016 | 23.07174 | 25890 ft | 398 kts | 155° |
| 2026-05-04 12:16 | 40.16478 | 23.08572 | 25452 ft | 395 kts | 155° |
| 2026-05-04 12:17 | 40.13958 | 23.09957 | 25011 ft | 392 kts | 155° |
| 2026-05-04 12:17 | 40.12260 | 23.10889 | 24708 ft | 390 kts | 155° |
| 2026-05-04 12:17 | 40.10391 | 23.11914 | 24364 ft | 387 kts | 155° |
| 2026-05-04 12:17 | 40.07921 | 23.13267 | 23951 ft | 383 kts | 155° |
| 2026-05-04 12:18 | 40.05465 | 23.14614 | 23536 ft | 379 kts | 155° |
| 2026-05-04 12:18 | 40.03036 | 23.15944 | 22989 ft | 377 kts | 155° |
| 2026-05-04 12:18 | 40.00971 | 23.17074 | 22572 ft | 374 kts | 155° |
| 2026-05-04 12:18 | 39.98577 | 23.18382 | 22133 ft | 370 kts | 155° |
| 2026-05-04 12:19 | 39.96215 | 23.19670 | 21705 ft | 367 kts | 155° |
| 2026-05-04 12:19 | 39.93875 | 23.20948 | 21278 ft | 363 kts | 155° |
| 2026-05-04 12:19 | 39.91559 | 23.22216 | 20857 ft | 359 kts | 155° |
| 2026-05-04 12:19 | 39.89264 | 23.23474 | 20440 ft | 356 kts | 155° |
| 2026-05-04 12:20 | 39.86989 | 23.24720 | 20024 ft | 353 kts | 155° |
| 2026-05-04 12:20 | 39.84733 | 23.25956 | 19610 ft | 351 kts | 155° |
| 2026-05-04 12:20 | 39.82486 | 23.27184 | 19208 ft | 348 kts | 155° |
| 2026-05-04 12:20 | 39.80260 | 23.28397 | 18808 ft | 346 kts | 155° |
| 2026-05-04 12:21 | 39.78047 | 23.29603 | 18407 ft | 344 kts | 155° |
| 2026-05-04 12:21 | 39.75841 | 23.30803 | 17959 ft | 342 kts | 155° |
| 2026-05-04 12:21 | 39.73682 | 23.31974 | 17578 ft | 339 kts | 155° |
| 2026-05-04 12:21 | 39.71512 | 23.33150 | 17193 ft | 336 kts | 155° |
| 2026-05-04 12:22 | 39.69363 | 23.34319 | 16810 ft | 334 kts | 155° |
| 2026-05-04 12:22 | 39.67222 | 23.35481 | 16434 ft | 332 kts | 155° |
| 2026-05-04 12:22 | 39.65097 | 23.36635 | 16057 ft | 330 kts | 155° |
| 2026-05-04 12:22 | 39.62983 | 23.37784 | 15685 ft | 328 kts | 155° |
| 2026-05-04 12:23 | 39.61590 | 23.38539 | 15437 ft | 328 kts | 155° |
| 2026-05-04 12:23 | 39.59525 | 23.39653 | 15082 ft | 326 kts | 155° |
| 2026-05-04 12:23 | 39.57431 | 23.40781 | 14717 ft | 325 kts | 154° |
| 2026-05-04 12:23 | 39.55344 | 23.41906 | 14345 ft | 325 kts | 154° |
| 2026-05-04 12:24 | 39.53256 | 23.43032 | 13982 ft | 325 kts | 154° |
| 2026-05-04 12:24 | 39.52731 | 23.43315 | 13881 ft | 325 kts | 154° |
| 2026-05-04 12:24 | 39.50678 | 23.44426 | 13485 ft | 324 kts | 154° |
| 2026-05-04 12:24 | 39.48600 | 23.45548 | 13107 ft | 322 kts | 155° |
| 2026-05-04 12:25 | 39.46534 | 23.46661 | 12734 ft | 321 kts | 155° |
| 2026-05-04 12:25 | 39.44479 | 23.47766 | 12350 ft | 319 kts | 155° |
| 2026-05-04 12:25 | 39.42431 | 23.48866 | 11969 ft | 318 kts | 155° |
| 2026-05-04 12:25 | 39.40389 | 23.49959 | 11589 ft | 317 kts | 155° |
| 2026-05-04 12:26 | 39.38350 | 23.51032 | 11189 ft | 316 kts | 156° |
| 2026-05-04 12:26 | 39.36317 | 23.52091 | 10809 ft | 315 kts | 156° |
| 2026-05-04 12:26 | 39.34310 | 23.53131 | 10504 ft | 307 kts | 156° |
| 2026-05-04 12:26 | 39.32330 | 23.54160 | 10029 ft | 305 kts | 156° |
| 2026-05-04 12:27 | 39.30384 | 23.55172 | 9601 ft | 298 kts | 156° |
| 2026-05-04 12:27 | 39.28475 | 23.56167 | 9203 ft | 295 kts | 156° |
| 2026-05-04 12:27 | 39.26574 | 23.57160 | 8809 ft | 294 kts | 156° |
| 2026-05-04 12:27 | 39.24682 | 23.58147 | 8407 ft | 293 kts | 157° |
| 2026-05-04 12:28 | 39.22792 | 23.59129 | 7994 ft | 292 kts | 157° |
| 2026-05-04 12:28 | 39.20909 | 23.60108 | 7587 ft | 292 kts | 157° |
| 2026-05-04 12:28 | 39.18965 | 23.60865 | 7160 ft | 293 kts | 174° |
| 2026-05-04 12:28 | 39.16941 | 23.60691 | 6729 ft | 293 kts | 198° |
| 2026-05-04 12:29 | 39.15086 | 23.59650 | 6278 ft | 290 kts | 210° |
| 2026-05-04 12:29 | 39.13332 | 23.58495 | 5826 ft | 281 kts | 210° |
| 2026-05-04 12:29 | 39.11624 | 23.57379 | 5420 ft | 268 kts | 210° |
| 2026-05-04 12:29 | 39.09998 | 23.56322 | 5029 ft | 256 kts | 211° |
| 2026-05-04 12:30 | 39.08441 | 23.55311 | 4642 ft | 245 kts | 211° |
| 2026-05-04 12:30 | 39.06950 | 23.54342 | 4262 ft | 235 kts | 211° |
| 2026-05-04 12:30 | 39.05513 | 23.53405 | 3895 ft | 228 kts | 211° |
| 2026-05-04 12:30 | 39.04109 | 23.52486 | 3449 ft | 221 kts | 211° |
| 2026-05-04 12:31 | 39.02786 | 23.51618 | 3104 ft | 204 kts | 214° |
| 2026-05-04 12:31 | 39.01900 | 23.50412 | 2925 ft | 176 kts | 257° |
| 2026-05-04 12:31 | 39.01879 | 23.48996 | 2788 ft | 148 kts | 289° |
| 2026-05-04 12:31 | 39.02349 | 23.47903 | 2640 ft | 137 kts | 314° |
| 2026-05-04 12:32 | 39.03130 | 23.47242 | 2514 ft | 135 kts | 340° |
| 2026-05-04 12:32 | 39.04933 | 23.46704 | 2240 ft | 134 kts | 358° |
| 2026-05-04 12:32 | 39.05860 | 23.46880 | 2108 ft | 135 kts | 10° |
| 2026-05-04 12:33 | 39.06764 | 23.47144 | 1970 ft | 135 kts | 9° |
| 2026-05-04 12:33 | 39.07675 | 23.47405 | 1833 ft | 133 kts | 9° |
| 2026-05-04 12:33 | 39.08578 | 23.47663 | 1696 ft | 133 kts | 10° |
| 2026-05-04 12:33 | 39.09485 | 23.47923 | 1552 ft | 134 kts | 10° |
| 2026-05-04 12:34 | 39.10395 | 23.48183 | 1375 ft | 133 kts | 10° |
| 2026-05-04 12:34 | 39.11292 | 23.48440 | 1195 ft | 132 kts | 10° |
| 2026-05-04 12:34 | 39.12185 | 23.48694 | 1016 ft | 132 kts | 11° |
| 2026-05-04 12:34 | 39.13086 | 23.48941 | 827 ft | 135 kts | 9° |
| 2026-05-04 12:35 | 39.14010 | 23.49148 | 730 ft | 137 kts | 9° |
| 2026-05-04 12:35 | 39.14937 | 23.49336 | 546 ft | 133 kts | 10° |
| 2026-05-04 12:35 | 39.15853 | 23.49528 | 289 ft | 133 kts | 15° |
| 2026-05-04 12:35 | 39.16702 | 23.49906 | 92 ft | 128 kts | 26° |
| 2026-05-04 12:36 | 39.17479 | 23.50266 | 39 ft | 93 kts | 20° |
| 2026-05-04 12:36 | 39.17787 | 23.50409 | 38 ft | 33 kts | 20° |
| 2026-05-04 12:36 | 39.17938 | 23.50419 | 42 ft | 13 kts | 290° |
| 2026-05-04 12:36 | 39.17927 | 23.50371 | 42 ft | 0 kts | 250° |
| 2026-05-04 12:37 | 39.17912 | 23.50348 | 40 ft | 10 kts | 221° |
| 2026-05-04 12:37 | 39.17888 | 23.50309 | 39 ft | 4 kts | 302° |
| 2026-05-04 12:37 | 39.17899 | 23.50278 | 38 ft | 4 kts | 288° |
| 2026-05-04 12:37 | 39.17906 | 23.50251 | 39 ft | 3 kts | 288° |
| 2026-05-04 12:38 | 39.17909 | 23.50243 | 38 ft | 0 kts | 289° |